Time;durP1;ratioP1;P1;durP2;ratioP2;P2;SDS_P1;SDS_P2;PMS_P1;PMS_P2;Temp;Humidity;BMP_temperature;BMP_pressure;BME280_temperature;BME280_humidity;BME280_pressure;Samples;Min_cycle;Max_cycle;Signal;HPM_P1;HPM_P2
2022/07/06 00:01:30;;;;;;;3.47;2.60;;;27.20;56.30;;;;;;4992642;28;20080;-51
2022/07/06 00:03:56;;;;;;;5.13;2.28;;;27.20;56.50;;;;;;4992672;28;20494;-51
2022/07/06 00:06:23;;;;;;;4.63;2.47;;;27.20;56.80;;;;;;4992225;28;20034;-51
2022/07/06 00:08:49;;;;;;;4.60;2.30;;;27.20;56.50;;;;;;4992837;28;20483;-51
2022/07/06 00:11:15;;;;;;;4.87;1.97;;;27.10;56.50;;;;;;4992930;28;20028;-51
2022/07/06 00:13:40;;;;;;;4.37;2.77;;;27.10;57.20;;;;;;4991199;28;20320;-50
2022/07/06 00:16:06;;;;;;;4.20;2.87;;;27.00;57.30;;;;;;4992355;28;20273;-50
2022/07/06 00:18:32;;;;;;;4.43;2.13;;;27.00;57.10;;;;;;4992036;28;20037;-50
2022/07/06 00:20:58;;;;;;;4.07;2.20;;;27.00;57.10;;;;;;4992114;28;20030;-51
2022/07/06 00:23:24;;;;;;;2.57;1.57;;;26.90;57.00;;;;;;4992503;28;20030;-52
2022/07/06 00:25:50;;;;;;;4.10;2.05;;;26.90;57.20;;;;;;4992650;28;20486;-51
2022/07/06 00:28:15;;;;;;;4.55;2.22;;;26.90;57.20;;;;;;4991242;28;20033;-51
2022/07/06 00:30:41;;;;;;;5.33;2.07;;;26.90;57.20;;;;;;4992397;28;20022;-50
2022/07/06 00:33:07;;;;;;;4.73;1.93;;;26.90;57.10;;;;;;4991989;28;20030;-52
2022/07/06 00:35:33;;;;;;;4.35;2.50;;;26.90;57.00;;;;;;4992139;28;20037;-51
2022/07/06 00:37:59;;;;;;;5.55;2.78;;;26.90;57.40;;;;;;4992518;28;20030;-51
2022/07/06 00:40:25;;;;;;;4.60;2.50;;;26.80;57.10;;;;;;4992118;28;20085;-50
2022/07/06 00:42:52;;;;;;;2.88;2.22;;;26.90;57.00;;;;;;4992046;28;20565;-51
2022/07/06 00:45:19;;;;;;;3.72;2.03;;;26.90;56.90;;;;;;4992341;28;20037;-50
2022/07/06 00:47:46;;;;;;;4.38;2.03;;;26.90;57.00;;;;;;4990823;28;20030;-51
2022/07/06 00:50:14;;;;;;;6.30;2.33;;;26.90;56.90;;;;;;4991712;28;20022;-51
2022/07/06 00:52:53;;;;;;;4.85;1.75;;;26.90;56.90;;;;;;4992391;28;20030;-51
2022/07/06 00:55:28;;;;;;;9.48;2.20;;;26.90;56.70;;;;;;4991724;28;20507;-51
2022/07/06 00:57:55;;;;;;;6.95;3.03;;;26.90;56.90;;;;;;4991524;28;20030;-51
2022/07/06 01:00:23;;;;;;;5.43;2.50;;;26.90;57.00;;;;;;4992110;28;20109;-51
2022/07/06 01:02:50;;;;;;;4.55;2.20;;;26.90;56.60;;;;;;4991349;28;20057;-51
2022/07/06 01:05:16;;;;;;;5.13;2.72;;;26.80;56.80;;;;;;4992028;28;20032;-50
2022/07/06 01:07:44;;;;;;;5.20;2.53;;;26.70;56.90;;;;;;4991731;28;20033;-52
2022/07/06 01:10:12;;;;;;;4.68;2.35;;;26.60;57.00;;;;;;4992270;28;20046;-50
2022/07/06 01:12:42;;;;;;;3.30;2.00;;;26.60;56.60;;;;;;4992207;28;20041;-50
2022/07/06 01:15:12;;;;;;;5.63;2.33;;;26.60;56.70;;;;;;4991614;28;20034;-51
2022/07/06 01:17:42;;;;;;;4.20;2.20;;;26.60;56.40;;;;;;4991444;28;20034;-51
2022/07/06 01:20:09;;;;;;;9.25;1.77;;;26.60;56.80;;;;;;4991722;28;20499;-50
2022/07/06 01:22:35;;;;;;;3.83;2.10;;;26.50;56.30;;;;;;4991994;28;20037;-51
2022/07/06 01:25:00;;;;;;;6.10;1.87;;;26.60;56.30;;;;;;4992384;28;20015;-51
2022/07/06 01:27:26;;;;;;;3.10;2.00;;;26.60;56.50;;;;;;4990429;28;20101;-51
2022/07/06 01:29:52;;;;;;;4.07;2.10;;;26.60;56.30;;;;;;4990052;28;20034;-51
2022/07/06 01:32:17;;;;;;;5.70;2.10;;;26.50;56.00;;;;;;4991514;28;20097;-51
2022/07/06 01:34:43;;;;;;;2.37;1.70;;;26.50;55.80;;;;;;4990209;28;20050;-50
2022/07/06 01:37:09;;;;;;;3.70;1.83;;;26.50;55.90;;;;;;4991837;28;20439;-51
2022/07/06 01:39:34;;;;;;;2.63;1.50;;;26.40;55.60;;;;;;4991764;28;20492;-50
2022/07/06 01:42:00;;;;;;;6.07;1.47;;;26.40;55.20;;;;;;4991882;28;20033;-51
2022/07/06 01:44:26;;;;;;;4.13;1.50;;;26.30;54.50;;;;;;4991639;28;20030;-50
2022/07/06 01:46:51;;;;;;;1.30;1.20;;;26.30;55.10;;;;;;4991577;28;20026;-51
2022/07/06 01:49:17;;;;;;;3.33;1.30;;;26.20;54.80;;;;;;4989941;28;20126;-50
2022/07/06 01:51:43;;;;;;;3.80;1.53;;;26.20;54.40;;;;;;4991829;28;20054;-52
2022/07/06 01:54:08;;;;;;;5.43;1.80;;;26.10;54.50;;;;;;4991855;28;20049;-51
2022/07/06 01:56:34;;;;;;;1.60;1.07;;;26.10;54.20;;;;;;4991694;28;20065;-53
2022/07/06 01:59:00;;;;;;;3.23;1.20;;;26.10;54.40;;;;;;4991307;28;20554;-51
2022/07/06 02:01:25;;;;;;;4.93;1.20;;;26.10;54.50;;;;;;4990452;28;20105;-51
2022/07/06 02:03:51;;;;;;;3.80;1.30;;;26.00;55.00;;;;;;4991411;28;20037;-51
2022/07/06 02:06:17;;;;;;;1.90;1.73;;;26.00;55.20;;;;;;4992901;28;20113;-52
2022/07/06 02:08:43;;;;;;;2.63;1.53;;;25.90;55.40;;;;;;4995149;28;20027;-51
2022/07/06 02:11:10;;;;;;;1.42;1.30;;;25.90;55.40;;;;;;4994691;28;20045;-51
2022/07/06 02:13:36;;;;;;;3.00;1.50;;;25.90;56.00;;;;;;4994265;28;20040;-51
2022/07/06 02:16:03;;;;;;;1.75;1.00;;;25.80;55.80;;;;;;4994258;28;20122;-51
2022/07/06 02:18:29;;;;;;;4.15;1.50;;;25.80;55.90;;;;;;4994511;28;20038;-51
2022/07/06 02:20:55;;;;;;;1.83;1.40;;;25.80;56.10;;;;;;4994515;28;20077;-51
2022/07/06 02:23:20;;;;;;;1.67;1.53;;;25.80;56.50;;;;;;4994644;28;20026;-51
2022/07/06 02:25:46;;;;;;;1.47;1.23;;;25.80;57.00;;;;;;4994456;28;20049;-51
2022/07/06 02:28:12;;;;;;;1.87;1.50;;;25.80;56.90;;;;;;4994606;28;20152;-50
2022/07/06 02:30:38;;;;;;;2.87;1.47;;;25.80;57.10;;;;;;4993925;28;20031;-51
2022/07/06 02:33:04;;;;;;;2.43;1.23;;;25.80;57.10;;;;;;4994630;28;20030;-52
2022/07/06 02:35:30;;;;;;;3.67;1.50;;;25.80;57.60;;;;;;4994880;28;20161;-52
2022/07/06 02:37:55;;;;;;;6.13;2.07;;;25.90;57.60;;;;;;4994305;28;20269;-50
2022/07/06 02:40:21;;;;;;;2.50;1.40;;;25.90;57.70;;;;;;4994045;28;20364;-50
2022/07/06 02:42:46;;;;;;;3.90;1.70;;;25.90;58.00;;;;;;4992601;28;20124;-50
2022/07/06 02:45:12;;;;;;;2.70;1.57;;;25.90;58.00;;;;;;4993391;28;20026;-51
2022/07/06 02:47:38;;;;;;;1.63;1.47;;;25.80;57.90;;;;;;4994418;28;20061;-50
2022/07/06 02:50:05;;;;;;;2.53;1.70;;;25.80;58.40;;;;;;4993881;28;20019;-50
2022/07/06 02:52:31;;;;;;;3.55;1.75;;;25.80;58.90;;;;;;4993499;28;20097;-51
2022/07/06 02:54:56;;;;;;;1.70;1.60;;;25.80;58.90;;;;;;4994091;28;20122;-51
2022/07/06 02:57:22;;;;;;;2.93;1.83;;;25.80;59.20;;;;;;4994087;28;20038;-51
2022/07/06 02:59:49;;;;;;;3.73;1.97;;;25.80;59.10;;;;;;4994075;28;20030;-50
2022/07/06 03:02:16;;;;;;;6.18;1.85;;;25.80;59.00;;;;;;4993587;28;20026;-51
2022/07/06 03:04:42;;;;;;;1.77;1.60;;;25.70;59.30;;;;;;4992899;28;20081;-50
2022/07/06 03:07:07;;;;;;;4.63;1.87;;;25.70;59.40;;;;;;4993558;28;20490;-51
2022/07/06 03:09:33;;;;;;;1.80;1.70;;;25.70;59.50;;;;;;4993695;28;20073;-51
2022/07/06 03:11:59;;;;;;;2.43;1.93;;;25.60;59.60;;;;;;4993766;28;20141;-50
2022/07/06 03:14:25;;;;;;;4.37;1.70;;;25.60;59.70;;;;;;4990024;28;20766;-50
2022/07/06 03:16:51;;;;;;;7.90;2.83;;;25.60;59.70;;;;;;4995112;28;20053;-50
2022/07/06 03:19:17;;;;;;;4.57;2.10;;;25.60;60.00;;;;;;4991538;28;20109;-51
2022/07/06 03:21:43;;;;;;;4.33;2.10;;;25.50;60.00;;;;;;4974312;28;20073;-50
2022/07/06 03:24:09;;;;;;;2.97;1.80;;;25.60;60.00;;;;;;4990324;28;20373;-50
2022/07/06 03:26:35;;;;;;;3.20;2.00;;;25.60;60.10;;;;;;4993233;28;20535;-50
2022/07/06 03:29:01;;;;;;;2.07;1.67;;;25.50;60.10;;;;;;4993096;28;20027;-51
2022/07/06 03:31:27;;;;;;;4.33;1.67;;;25.50;60.20;;;;;;4992335;28;20033;-50
2022/07/06 03:33:52;;;;;;;3.40;1.47;;;25.50;60.10;;;;;;4993162;28;20026;-52
2022/07/06 03:36:18;;;;;;;4.10;2.03;;;25.50;60.20;;;;;;4993348;28;20044;-50
2022/07/06 03:38:44;;;;;;;2.53;1.57;;;25.40;60.30;;;;;;4988283;28;20438;-50
2022/07/06 03:41:09;;;;;;;1.43;1.33;;;25.40;60.20;;;;;;4984284;28;20116;-50
2022/07/06 03:43:35;;;;;;;4.80;1.50;;;25.40;60.30;;;;;;4990499;28;20084;-53
2022/07/06 03:46:01;;;;;;;2.13;1.53;;;25.40;60.10;;;;;;4993442;28;20022;-52
2022/07/06 03:48:27;;;;;;;2.93;1.87;;;25.40;60.40;;;;;;4993202;28;20080;-51
2022/07/06 03:50:53;;;;;;;2.10;1.63;;;25.40;60.40;;;;;;4988540;28;20493;-51
2022/07/06 03:53:18;;;;;;;2.97;1.50;;;25.30;60.40;;;;;;4974947;28;20034;-50
2022/07/06 03:56:27;;;;;;;3.17;1.70;;;25.40;61.00;;;;;;4990950;28;20041;-51
2022/07/06 03:58:30;;;;;;;8.60;3.15;;;25.40;60.60;;;;;;4993206;28;20046;-50
2022/07/06 04:00:56;;;;;;;3.17;1.93;;;25.30;60.40;;;;;;4992563;28;20026;-51
2022/07/06 04:03:21;;;;;;;2.30;1.60;;;25.30;60.70;;;;;;4991732;28;20420;-51
2022/07/06 04:05:47;;;;;;;2.67;1.93;;;25.40;60.80;;;;;;4992874;28;20030;-52
2022/07/06 04:08:13;;;;;;;2.40;1.60;;;25.30;60.70;;;;;;4993235;28;20026;-50
2022/07/06 04:10:38;;;;;;;2.57;1.53;;;25.30;60.60;;;;;;4992741;28;20452;-50
2022/07/06 04:13:04;;;;;;;2.93;1.87;;;25.30;61.20;;;;;;4992704;28;20034;-50
2022/07/06 04:15:30;;;;;;;2.87;1.70;;;25.30;61.20;;;;;;4990453;28;20030;-50
2022/07/06 04:17:55;;;;;;;4.80;1.40;;;25.30;61.00;;;;;;4992798;28;20059;-52
2022/07/06 04:20:23;;;;;;;9.63;2.50;;;25.20;61.30;;;;;;4992627;28;20541;-51
2022/07/06 04:22:50;;;;;;;4.63;1.55;;;25.20;61.40;;;;;;4992533;28;20049;-51
2022/07/06 04:25:15;;;;;;;2.38;1.13;;;25.20;61.40;;;;;;4992608;28;20097;-50
2022/07/06 04:27:42;;;;;;;3.60;1.47;;;25.20;61.50;;;;;;4992700;28;20061;-50
2022/07/06 04:30:08;;;;;;;1.77;1.35;;;25.10;61.50;;;;;;4992005;28;20571;-50
2022/07/06 04:32:35;;;;;;;2.40;1.40;;;25.10;61.90;;;;;;4992628;28;20018;-50
2022/07/06 04:35:01;;;;;;;2.25;1.65;;;25.10;62.10;;;;;;4992564;28;20502;-50
2022/07/06 04:37:27;;;;;;;2.47;1.35;;;25.10;62.10;;;;;;4992567;28;20030;-50
2022/07/06 04:39:53;;;;;;;5.23;2.00;;;25.10;62.10;;;;;;4992572;28;20072;-51
2022/07/06 04:42:19;;;;;;;3.40;1.70;;;25.10;62.10;;;;;;4992542;28;20026;-50
2022/07/06 04:44:45;;;;;;;3.87;1.97;;;25.00;62.00;;;;;;4992757;28;20018;-50
2022/07/06 04:47:12;;;;;;;2.50;2.05;;;25.00;62.20;;;;;;4992413;28;20162;-50
2022/07/06 04:49:38;;;;;;;2.80;1.30;;;24.90;62.60;;;;;;4992212;28;20054;-51
2022/07/06 04:52:04;;;;;;;1.73;1.40;;;24.90;62.70;;;;;;4992458;28;20042;-50
2022/07/06 04:54:30;;;;;;;3.60;1.67;;;24.90;62.60;;;;;;4992203;28;20022;-51
2022/07/06 04:56:55;;;;;;;6.30;1.87;;;24.90;62.70;;;;;;4993051;28;20040;-51
2022/07/06 04:59:21;;;;;;;5.73;1.80;;;25.00;62.80;;;;;;4992174;28;20064;-51
2022/07/06 05:01:47;;;;;;;2.33;1.87;;;24.90;62.90;;;;;;4992208;28;20030;-51
2022/07/06 05:04:13;;;;;;;10.27;1.87;;;24.90;63.20;;;;;;4992284;28;20440;-51
2022/07/06 05:06:39;;;;;;;8.20;1.80;;;24.90;63.20;;;;;;4992222;28;20392;-51
2022/07/06 05:09:05;;;;;;;10.93;2.10;;;24.90;63.40;;;;;;4992082;28;20093;-53
2022/07/06 05:11:31;;;;;;;9.00;3.42;;;24.90;63.30;;;;;;4992305;28;20053;-51
2022/07/06 05:13:57;;;;;;;2.10;1.67;;;24.90;63.60;;;;;;4992252;28;20515;-51
2022/07/06 05:16:23;;;;;;;3.80;1.77;;;25.00;63.60;;;;;;4992167;28;20502;-51
2022/07/06 05:18:49;;;;;;;5.53;2.33;;;25.10;63.50;;;;;;4991929;28;20387;-51
2022/07/06 05:21:15;;;;;;;4.73;1.90;;;25.10;63.50;;;;;;4992140;28;20053;-52
2022/07/06 05:23:40;;;;;;;4.60;3.00;;;25.10;63.50;;;;;;4992034;28;20022;-51
2022/07/06 05:26:06;;;;;;;2.77;1.63;;;25.20;63.60;;;;;;4992046;28;20406;-51
2022/07/06 05:28:32;;;;;;;4.73;2.20;;;25.20;63.80;;;;;;4990586;28;20026;-51
2022/07/06 05:30:59;;;;;;;4.33;2.27;;;25.20;63.90;;;;;;4992022;28;20383;-50
2022/07/06 05:33:24;;;;;;;1.80;1.60;;;25.30;63.70;;;;;;4991996;28;20088;-51
2022/07/06 05:35:50;;;;;;;1.93;1.73;;;25.30;63.80;;;;;;4991958;28;20484;-51
2022/07/06 05:38:16;;;;;;;6.20;2.00;;;25.30;63.60;;;;;;4992098;28;20427;-51
2022/07/06 05:40:41;;;;;;;6.23;2.20;;;25.40;63.40;;;;;;4992650;28;20030;-51
2022/07/06 05:43:07;;;;;;;5.90;2.43;;;25.50;63.20;;;;;;4995521;28;20065;-54
2022/07/06 05:45:33;;;;;;;8.17;2.37;;;25.60;63.50;;;;;;4995565;28;20026;-50
2022/07/06 05:50:43;;;;;;;5.97;2.50;;;25.80;63.00;;;;;;4995387;28;20561;-50
2022/07/06 05:53:08;;;;;;;5.07;3.23;;;25.90;62.90;;;;;;4995501;28;20050;-50
2022/07/06 05:55:34;;;;;;;4.83;2.40;;;26.00;63.10;;;;;;4995218;28;20038;-51
2022/07/06 05:58:00;;;;;;;4.77;1.73;;;26.00;62.70;;;;;;4995391;28;20026;-52
2022/07/06 06:00:27;;;;;;;3.73;1.90;;;26.10;62.30;;;;;;4995250;28;20026;-51
2022/07/06 06:02:53;;;;;;;;;;;26.20;62.40;;;;;;4995742;28;20089;-52
2022/07/06 06:05:19;;;;;;;3.30;1.83;;;26.20;62.40;;;;;;4995268;28;19941;-51
2022/07/06 06:07:49;;;;;;;5.03;1.85;;;26.30;62.50;;;;;;4995248;28;20030;-51
2022/07/06 06:10:17;;;;;;;5.00;2.30;;;26.30;62.40;;;;;;4995120;28;20023;-50
2022/07/06 06:12:43;;;;;;;3.50;1.70;;;26.40;61.90;;;;;;4995228;28;20030;-53
2022/07/06 06:15:09;;;;;;;;;;;26.60;61.60;;;;;;4995458;28;20026;-51
2022/07/06 06:17:36;;;;;;;4.80;2.20;;;26.60;61.00;;;;;;4995038;28;19992;-51
2022/07/06 06:20:04;;;;;;;3.60;1.92;;;26.70;61.40;;;;;;4994858;28;20041;-51
2022/07/06 06:22:30;;;;;;;3.67;2.13;;;26.70;60.60;;;;;;4994780;28;20113;-51
2022/07/06 06:24:55;;;;;;;3.37;1.70;;;26.70;60.80;;;;;;4995175;28;20109;-51
2022/07/06 06:27:21;;;;;;;3.57;1.80;;;26.70;60.70;;;;;;4994812;28;20034;-51
2022/07/06 06:29:47;;;;;;;1.93;1.70;;;26.80;60.60;;;;;;4995017;28;20372;-51
2022/07/06 06:32:13;;;;;;;3.10;1.60;;;26.80;60.30;;;;;;4994851;28;20530;-52
2022/07/06 06:34:39;;;;;;;2.37;2.10;;;26.90;59.80;;;;;;4994954;28;20038;-52
2022/07/06 06:37:05;;;;;;;4.00;1.60;;;26.90;59.40;;;;;;4994605;28;20033;-51
2022/07/06 06:39:31;;;;;;;2.50;1.73;;;26.90;58.80;;;;;;4994518;28;20022;-51
2022/07/06 06:41:57;;;;;;;1.75;1.33;;;26.90;58.60;;;;;;4994465;28;20076;-51
2022/07/06 06:44:23;;;;;;;2.67;1.13;;;26.80;58.70;;;;;;4994650;28;20097;-51
2022/07/06 06:46:52;;;;;;;2.93;1.47;;;26.80;58.80;;;;;;4994532;28;20618;-50
2022/07/06 06:49:18;;;;;;;5.88;2.25;;;26.80;58.30;;;;;;4994323;28;20164;-52
2022/07/06 06:51:44;;;;;;;2.65;1.30;;;26.80;58.40;;;;;;4994199;28;20015;-50
2022/07/06 06:54:10;;;;;;;3.25;1.50;;;26.90;58.20;;;;;;4994347;28;20026;-51
2022/07/06 06:56:36;;;;;;;4.00;1.70;;;26.90;58.20;;;;;;4994105;28;20031;-53
2022/07/06 06:59:02;;;;;;;5.83;1.33;;;27.00;57.80;;;;;;4994315;28;20022;-51
2022/07/06 07:01:28;;;;;;;2.10;1.37;;;27.00;58.00;;;;;;4994233;28;20308;-51
2022/07/06 07:03:57;;;;;;;7.73;2.33;;;27.10;57.30;;;;;;4992909;28;20026;-52
2022/07/06 07:06:23;;;;;;;3.28;1.10;;;;;;;;;;4993968;28;20361;-51
2022/07/06 07:08:49;;;;;;;4.63;1.38;;;;;;;;;;4992735;28;20050;-49
2022/07/06 07:11:14;;;;;;;2.22;1.35;;;27.10;57.40;;;;;;4994029;28;20463;-55
2022/07/06 07:13:40;;;;;;;1.30;1.20;;;;;;;;;;4994018;28;20030;-55
2022/07/06 07:16:07;;;;;;;3.67;1.50;;;;;;;;;;4993831;28;20105;-55
2022/07/06 07:18:33;;;;;;;2.83;1.52;;;;;;;;;;4994148;28;20464;-53
2022/07/06 07:20:59;;;;;;;3.58;1.08;;;;;;;;;;4993725;28;20040;-53
2022/07/06 07:23:25;;;;;;;3.30;1.13;;;27.30;57.30;;;;;;4992551;28;20559;-53
2022/07/06 07:25:51;;;;;;;2.47;1.33;;;;;;;;;;4993665;28;20030;-56
2022/07/06 07:28:17;;;;;;;2.92;1.30;;;;;;;;;;4993780;28;20026;-56
2022/07/06 07:30:43;;;;;;;3.67;1.80;;;;;;;;;;4993539;28;20030;-56
2022/07/06 07:33:09;;;;;;;2.55;1.10;;;;;;;;;;4993656;28;20084;-55
2022/07/06 07:35:35;;;;;;;2.13;1.02;;;;;;;;;;4992152;28;20061;-55
2022/07/06 07:38:01;;;;;;;5.95;1.77;;;;;;;;;;4993568;28;20468;-54
2022/07/06 07:40:27;;;;;;;6.57;1.38;;;;;;;;;;4993356;28;20149;-54
2022/07/06 07:42:53;;;;;;;3.00;1.25;;;;;;;;;;4992188;28;20030;-56
2022/07/06 07:45:19;;;;;;;2.80;1.35;;;;;;;;;;4993369;28;20053;-56
2022/07/06 07:47:45;;;;;;;6.60;2.20;;;;;;;;;;4993374;28;20034;-53
2022/07/06 07:50:12;;;;;;;21.90;2.60;;;;;;;;;;4992964;28;20145;-51
2022/07/06 07:52:38;;;;;;;3.40;1.35;;;;;;;;;;4993283;28;20089;-52
2022/07/06 07:55:04;;;;;;;1.60;1.10;;;;;;;;;;4993029;28;20050;-54
2022/07/06 07:57:30;;;;;;;3.67;1.70;;;;;;;;;;4993480;28;20092;-50
2022/07/06 07:59:56;;;;;;;12.23;1.58;;;27.80;55.50;;;;;;4993384;28;20026;-50
2022/07/06 08:02:22;;;;;;;2.17;1.17;;;27.90;56.40;;;;;;4993030;28;20042;-52
2022/07/06 08:04:47;;;;;;;9.37;1.47;;;27.90;56.40;;;;;;4992243;28;20497;-52
2022/07/06 08:07:13;;;;;;;1.47;1.33;;;27.90;56.10;;;;;;4993130;28;20550;-50
2022/07/06 08:09:39;;;;;;;2.40;1.47;;;28.00;55.70;;;;;;4992895;28;20031;-50
2022/07/06 08:12:05;;;;;;;18.53;2.57;;;28.00;55.50;;;;;;4992966;28;20030;-50
2022/07/06 08:14:31;;;;;;;12.90;2.33;;;28.00;55.00;;;;;;4992850;28;20033;-50
2022/07/06 08:16:57;;;;;;;11.48;2.17;;;28.00;55.10;;;;;;4993061;28;20015;-50
2022/07/06 08:19:23;;;;;;;3.30;1.20;;;28.10;55.10;;;;;;4991373;28;20022;-49
2022/07/06 08:21:48;;;;;;;15.00;2.63;;;28.20;54.50;;;;;;4991578;28;20085;-49
2022/07/06 08:24:14;;;;;;;2.97;1.03;;;28.20;54.80;;;;;;4992716;28;20027;-50
2022/07/06 08:26:40;;;;;;;6.00;1.30;;;28.30;54.80;;;;;;4992750;28;20430;-52
2022/07/06 08:29:06;;;;;;;1.13;1.03;;;28.40;54.90;;;;;;4992624;28;20023;-49
2022/07/06 08:31:34;;;;;;;2.58;0.98;;;28.40;55.00;;;;;;4992926;28;20500;-49
2022/07/06 08:34:00;;;;;;;6.88;1.50;;;28.50;54.70;;;;;;4992534;28;20034;-49
2022/07/06 08:36:26;;;;;;;56.03;8.82;;;28.60;54.40;;;;;;4992516;28;20022;-49
2022/07/06 08:38:52;;;;;;;37.90;5.47;;;28.60;54.50;;;;;;4992341;28;20072;-49
2022/07/06 08:41:20;;;;;;;14.63;2.77;;;28.60;54.50;;;;;;4992757;28;20053;-49
2022/07/06 08:43:46;;;;;;;31.50;4.65;;;28.70;54.40;;;;;;4992498;28;20102;-49
2022/07/06 08:46:14;;;;;;;6.07;2.23;;;28.70;53.90;;;;;;4992378;28;20117;-50
2022/07/06 08:48:40;;;;;;;4.45;1.98;;;28.80;53.70;;;;;;4992206;28;20054;-48
2022/07/06 08:51:07;;;;;;;35.25;3.28;;;28.80;53.20;;;;;;4992298;28;20484;-51
2022/07/06 08:53:33;;;;;;;5.82;1.33;;;28.70;53.80;;;;;;4992350;28;20511;-54
2022/07/06 08:55:59;;;;;;;9.32;1.17;;;28.80;53.70;;;;;;4992372;28;20042;-52
2022/07/06 08:58:27;;;;;;;412.88;50.63;;;28.90;53.60;;;;;;4992187;28;20483;-52
2022/07/06 09:00:57;;;;;;;5.18;1.30;;;29.00;52.80;;;;;;4992264;28;20073;-52
2022/07/06 09:03:26;;;;;;;2.13;1.02;;;29.10;52.10;;;;;;4992162;28;20030;-52
2022/07/06 09:05:55;;;;;;;36.13;6.65;;;29.00;51.90;;;;;;4992115;28;20030;-52
2022/07/06 09:08:24;;;;;;;7.88;1.40;;;29.10;52.40;;;;;;4992209;28;20022;-52
2022/07/06 09:10:49;;;;;;;7.75;3.70;;;29.30;52.40;;;;;;4992317;28;20425;-52
2022/07/06 09:13:15;;;;;;;31.53;10.27;;;29.20;52.30;;;;;;4992097;28;20027;-53
2022/07/06 09:15:41;;;;;;;6.77;2.70;;;29.40;52.10;;;;;;4994538;28;20077;-53
2022/07/06 09:18:07;;;;;;;5.87;1.43;;;29.40;51.70;;;;;;4995128;28;20026;-52
2022/07/06 09:20:33;;;;;;;;;;;29.40;51.80;;;;;;4996327;28;20035;-53
2022/07/06 09:23:00;;;;;;;8.43;1.60;;;29.40;51.50;;;;;;4995955;28;19910;-52
2022/07/06 09:25:27;;;;;;;41.85;5.97;;;29.40;52.20;;;;;;4995935;28;20034;-51
2022/07/06 09:27:56;;;;;;;2.72;1.52;;;29.50;52.50;;;;;;4995886;28;20098;-52
2022/07/06 09:30:23;;;;;;;13.07;2.58;;;29.50;51.70;;;;;;4995858;28;20050;-52
2022/07/06 09:32:51;;;;;;;1.80;1.25;;;29.50;51.80;;;;;;4995717;28;20535;-52
2022/07/06 09:35:49;;;;;;;8.40;1.73;;;29.60;51.30;;;;;;4995754;28;20053;-52
2022/07/06 09:38:15;;;;;;;32.33;3.65;;;29.60;51.00;;;;;;4963071;28;20123;-55
2022/07/06 09:40:43;;;;;;;12.07;1.65;;;29.70;49.70;;;;;;4995580;28;20157;-52
2022/07/06 09:43:14;;;;;;;3.28;0.90;;;29.80;49.10;;;;;;4995673;28;20026;-54
2022/07/06 09:45:42;;;;;;;3.85;1.30;;;29.90;48.50;;;;;;4995600;28;20037;-54
2022/07/06 09:48:22;;;;;;;1.58;0.90;;;30.00;47.70;;;;;;4995704;28;20045;-52
2022/07/06 09:50:51;;;;;;;3.13;1.10;;;30.00;48.00;;;;;;4995355;28;20529;-53
2022/07/06 09:53:17;;;;;;;2.90;1.00;;;30.10;47.50;;;;;;4995445;28;20033;-55
2022/07/06 09:55:45;;;;;;;2.38;0.95;;;30.10;47.50;;;;;;4994121;28;20062;-53
2022/07/06 09:58:11;;;;;;;4.13;1.10;;;30.20;47.70;;;;;;4994201;28;20491;-54
2022/07/06 10:00:38;;;;;;;3.80;1.75;;;30.20;47.50;;;;;;4993938;28;20487;-54
2022/07/06 10:03:05;;;;;;;1.38;0.90;;;30.30;47.80;;;;;;4995297;28;20026;-53
2022/07/06 10:05:32;;;;;;;2.97;1.10;;;30.40;47.40;;;;;;4995168;28;20487;-52
2022/07/06 10:08:00;;;;;;;2.60;1.02;;;30.40;47.40;;;;;;4995277;28;20033;-52
2022/07/06 10:10:29;;;;;;;4.15;1.08;;;30.50;47.50;;;;;;4994927;28;20014;-52
2022/07/06 10:12:56;;;;;;;3.25;1.08;;;30.60;47.50;;;;;;4994845;28;20109;-52
2022/07/06 10:15:28;;;;;;;3.15;1.00;;;30.60;46.80;;;;;;4994076;28;20037;-53
2022/07/06 10:17:55;;;;;;;2.08;1.00;;;30.70;47.30;;;;;;4994416;28;20026;-54
2022/07/06 10:20:21;;;;;;;1.40;0.80;;;30.70;48.10;;;;;;4992674;28;20026;-53
2022/07/06 10:22:48;;;;;;;0.85;0.80;;;30.80;47.90;;;;;;4987829;28;20058;-52
2022/07/06 10:25:17;;;;;;;3.00;1.35;;;30.80;47.80;;;;;;4994619;28;20025;-52
2022/07/06 10:27:45;;;;;;;1.33;1.20;;;30.90;47.50;;;;;;4988991;28;20027;-52
2022/07/06 10:30:11;;;;;;;1.92;1.35;;;30.90;47.10;;;;;;4994559;28;20062;-52
2022/07/06 10:32:40;;;;;;;2.10;1.25;;;30.90;47.30;;;;;;4994669;28;20037;-52
2022/07/06 10:35:07;;;;;;;1.10;1.00;;;30.90;47.30;;;;;;4994529;28;20105;-53
2022/07/06 10:37:33;;;;;;;3.63;1.30;;;30.90;47.20;;;;;;4994493;28;20096;-51
2022/07/06 10:42:49;;;;;;;0.85;0.85;;;31.00;47.30;;;;;;4994076;28;20085;-54
2022/07/06 10:45:28;;;;;;;2.45;1.33;;;31.00;46.90;;;;;;4994212;28;20391;-52
2022/07/06 10:48:12;;;;;;;4.28;1.00;;;31.10;47.00;;;;;;4987627;28;20030;-52
2022/07/06 10:50:46;;;;;;;1.80;1.02;;;31.20;47.00;;;;;;4993833;28;20513;-52
2022/07/06 10:53:14;;;;;;;1.50;1.00;;;31.20;46.80;;;;;;4994211;28;20111;-52
2022/07/06 10:55:43;;;;;;;1.13;0.90;;;31.20;47.20;;;;;;5035664;22;20050;-52
2022/07/06 10:58:10;;;;;;;1.70;1.10;;;31.20;47.60;;;;;;5013128;28;20049;-53
2022/07/06 11:00:53;;;;;;;2.22;1.15;;;31.30;47.20;;;;;;5013134;28;20566;-51
2022/07/06 11:03:35;;;;;;;2.92;1.30;;;31.50;46.50;;;;;;5009342;28;20022;-51
2022/07/06 11:06:07;;;;;;;2.55;1.75;;;31.50;45.60;;;;;;5003096;28;20217;-51
2022/07/06 11:08:43;;;;;;;1.13;1.02;;;31.50;46.40;;;;;;4993378;28;20433;-52
2022/07/06 11:11:17;;;;;;;2.60;1.17;;;31.60;45.70;;;;;;4973328;28;20037;-54
2022/07/06 11:14:14;;;;;;;3.38;1.30;;;31.60;45.50;;;;;;4985310;28;20440;-52
2022/07/06 11:16:51;;;;;;;2.85;1.35;;;31.70;46.90;;;;;;4976289;28;20121;-52
2022/07/06 11:19:23;;;;;;;3.55;1.40;;;31.70;45.90;;;;;;4993001;28;20026;-53
2022/07/06 11:22:09;;;;;;;3.05;1.27;;;31.80;46.80;;;;;;4993431;28;20533;-52
2022/07/06 11:24:40;;;;;;;4.72;1.85;;;31.90;44.80;;;;;;4980342;28;20502;-52
2022/07/06 11:27:06;;;;;;;1.90;1.20;;;32.00;46.40;;;;;;4992329;28;20576;-52
2022/07/06 11:29:34;;;;;;;3.60;1.40;;;32.10;46.50;;;;;;5002047;28;20030;-52
2022/07/06 11:32:03;;;;;;;2.58;1.40;;;32.10;44.60;;;;;;4988667;28;20030;-52
2022/07/06 11:34:34;;;;;;;2.35;1.23;;;32.20;44.90;;;;;;4993066;28;20014;-52
2022/07/06 11:37:07;;;;;;;3.75;1.20;;;32.30;45.00;;;;;;4988796;28;20038;-52
2022/07/06 11:39:34;;;;;;;1.30;1.10;;;;;;;;;;4991673;28;20029;-52
2022/07/06 11:42:00;;;;;;;1.48;1.30;;;;;;;;;;4990820;28;20475;-51
2022/07/06 11:44:27;;;;;;;1.63;1.20;;;;;;;;;;4993190;28;20053;-53
2022/07/06 11:46:54;;;;;;;;;;;;;;;;;;4992460;28;20105;-51
2022/07/06 11:49:20;;;;;;;3.63;1.60;;;;;;;;;;4992977;28;19910;-52
2022/07/06 11:51:47;;;;;;;1.95;1.25;;;32.40;45.00;;;;;;4992938;28;20042;-52
2022/07/06 11:54:14;;;;;;;2.92;1.20;;;32.90;43.80;;;;;;4993282;28;20101;-53
2022/07/06 11:56:51;;;;;;;3.25;1.05;;;33.00;43.60;;;;;;4992934;28;20494;-51
2022/07/06 11:59:30;;;;;;;2.53;1.20;;;33.00;43.30;;;;;;4992545;28;20484;-52
2022/07/06 12:02:06;;;;;;;2.15;1.50;;;33.10;44.10;;;;;;4983701;28;20113;-52
2022/07/06 12:04:34;;;;;;;2.50;1.10;;;33.20;44.00;;;;;;4991706;28;20033;-53
2022/07/06 12:07:04;;;;;;;1.95;1.40;;;33.20;42.70;;;;;;4991603;28;20102;-53
2022/07/06 12:09:31;;;;;;;1.55;1.30;;;33.20;42.60;;;;;;4991856;28;20041;-51
2022/07/06 12:11:57;;;;;;;2.80;1.35;;;33.20;43.80;;;;;;4992286;28;20384;-51
2022/07/06 12:14:23;;;;;;;1.10;0.90;;;33.20;42.60;;;;;;4992764;28;20023;-51
2022/07/06 12:16:50;;;;;;;2.42;1.52;;;33.20;43.40;;;;;;4992666;28;20129;-51
2022/07/06 12:19:17;;;;;;;2.47;1.00;;;33.30;42.80;;;;;;4992001;28;20018;-52
2022/07/06 12:21:48;;;;;;;1.80;1.17;;;33.40;42.40;;;;;;4992381;28;20081;-52
2022/07/06 12:24:34;;;;;;;3.85;1.20;;;33.50;43.00;;;;;;4992736;28;20033;-51
2022/07/06 12:27:19;;;;;;;3.30;1.55;;;33.50;42.60;;;;;;4992687;28;20026;-51
2022/07/06 12:29:47;;;;;;;1.98;1.20;;;33.60;42.40;;;;;;4986013;28;20027;-52
2022/07/06 12:32:18;;;;;;;2.50;0.90;;;33.60;43.20;;;;;;4991122;28;20072;-53
2022/07/06 12:34:44;;;;;;;2.50;1.25;;;33.70;41.80;;;;;;4992523;28;20494;-52
2022/07/06 12:37:12;;;;;;;3.55;1.30;;;33.80;41.60;;;;;;4991868;28;20027;-52
2022/07/06 12:39:46;;;;;;;3.10;1.13;;;33.80;41.70;;;;;;4974025;28;20030;-51
2022/07/06 12:42:16;;;;;;;1.08;0.98;;;33.90;41.80;;;;;;4992241;28;20034;-52
2022/07/06 12:44:45;;;;;;;1.75;1.27;;;34.00;41.50;;;;;;4992322;28;20395;-52
2022/07/06 12:47:11;;;;;;;3.38;1.40;;;33.90;41.70;;;;;;4992143;28;20032;-53
2022/07/06 12:49:38;;;;;;;1.73;1.20;;;34.10;41.10;;;;;;4973151;28;20029;-52
2022/07/06 12:52:07;;;;;;;1.95;1.08;;;34.10;40.90;;;;;;4992313;28;20037;-51
2022/07/06 12:54:35;;;;;;;1.90;1.70;;;;;;;;;;4992261;28;20057;-52
2022/07/06 12:57:02;;;;;;;2.28;0.90;;;34.10;41.10;;;;;;4992057;28;20030;-52
2022/07/06 12:59:29;;;;;;;1.40;1.27;;;;;;;;;;4991843;28;20026;-53
2022/07/06 13:01:56;;;;;;;1.35;1.00;;;34.20;41.60;;;;;;4991665;28;20165;-51